Time;durP1;ratioP1;P1;durP2;ratioP2;P2;SDS_P1;SDS_P2;PMS_P1;PMS_P2;Temp;Humidity;BMP_temperature;BMP_pressure;BME280_temperature;BME280_humidity;BME280_pressure;Samples;Min_cycle;Max_cycle;Signal;HPM_P1;HPM_P2
2023/08/21 00:01:01;;;;;;;3.72;1.23;;;;;;;28.80;41.94;101946.13;5054281;28;20037;-62
2023/08/21 00:03:26;;;;;;;6.07;1.73;;;;;;;28.78;42.71;101945.50;5055419;28;20059;-62
2023/08/21 00:05:52;;;;;;;5.82;1.20;;;;;;;28.75;43.06;101934.91;5052873;28;20036;-61
2023/08/21 00:08:17;;;;;;;2.97;1.08;;;;;;;28.73;42.43;101931.50;5053939;28;20094;-61
2023/08/21 00:10:42;;;;;;;8.27;1.75;;;;;;;28.68;42.17;101934.09;5055065;28;20511;-61
2023/08/21 00:13:08;;;;;;;5.85;1.52;;;;;;;28.70;42.13;101937.50;5054524;28;20396;-61
2023/08/21 00:15:33;;;;;;;3.60;1.98;;;;;;;28.68;42.82;101940.44;5053732;28;20036;-61
2023/08/21 00:18:00;;;;;;;3.55;1.10;;;;;;;28.67;43.07;101938.75;5055023;28;20400;-61
2023/08/21 00:20:26;;;;;;;3.10;1.85;;;;;;;28.66;43.25;101936.22;5054026;28;20034;-62
2023/08/21 00:22:52;;;;;;;3.65;1.60;;;;;;;28.60;42.92;101929.66;5053622;28;20492;-62
2023/08/21 00:25:17;;;;;;;5.07;1.20;;;;;;;28.58;42.49;101928.19;5053510;28;20033;-62
2023/08/21 00:27:43;;;;;;;4.05;1.40;;;;;;;28.53;42.60;101919.72;5053644;28;20515;-61
2023/08/21 00:30:10;;;;;;;4.57;1.15;;;;;;;28.47;43.23;101921.47;5053719;28;20056;-61
2023/08/21 00:32:35;;;;;;;4.93;1.92;;;;;;;28.45;43.16;101922.75;5053529;28;20111;-62
2023/08/21 00:35:01;;;;;;;3.05;1.10;;;;;;;28.42;43.49;101917.66;5054739;28;20035;-61
2023/08/21 00:37:26;;;;;;;4.95;1.15;;;;;;;28.41;43.64;101921.47;5054731;28;20515;-61
2023/08/21 00:39:52;;;;;;;6.20;1.35;;;;;;;28.37;43.65;101917.47;5054389;28;20021;-61
2023/08/21 00:42:17;;;;;;;9.40;1.33;;;;;;;28.34;43.25;101920.69;5052168;28;20056;-62
2023/08/21 00:44:43;;;;;;;3.40;1.17;;;;;;;28.30;43.48;101912.84;5053096;28;20492;-61
2023/08/21 00:47:08;;;;;;;3.47;1.25;;;;;;;28.28;43.80;101911.38;5054362;28;20102;-61
2023/08/21 00:49:33;;;;;;;4.00;1.40;;;;;;;28.26;43.82;101914.34;5053189;28;20041;-62
2023/08/21 00:51:59;;;;;;;6.00;1.55;;;;;;;28.23;43.90;101914.78;5054602;28;20111;-62
2023/08/21 00:54:25;;;;;;;7.30;1.20;;;;;;;28.21;43.80;101919.66;5054215;28;20040;-62
2023/08/21 00:56:52;;;;;;;5.22;0.88;;;;;;;28.16;43.59;101922.25;5053186;28;20033;-62
2023/08/21 00:59:20;;;;;;;2.00;0.85;;;;;;;28.17;43.40;101925.81;5054109;28;20041;-62
2023/08/21 01:01:45;;;;;;;3.80;1.10;;;;;;;28.15;42.80;101919.69;5052815;28;20040;-61
2023/08/21 01:04:11;;;;;;;5.95;1.55;;;;;;;28.12;43.13;101923.72;5054276;28;20029;-61
2023/08/21 01:06:37;;;;;;;4.05;1.00;;;;;;;28.10;43.63;101927.75;5054233;28;20052;-62
2023/08/21 01:09:21;;;;;;;4.13;1.10;;;;;;;28.08;44.03;101929.91;5054127;28;20025;-61
2023/08/21 01:11:53;;;;;;;2.83;1.20;;;;;;;28.05;43.60;101935.84;5052579;28;20654;-61
2023/08/21 01:14:31;;;;;;;6.18;1.52;;;;;;;28.02;43.56;101931.59;5053903;28;20032;-61
2023/08/21 01:16:59;;;;;;;6.22;1.33;;;;;;;28.00;44.03;101927.34;5051600;28;20033;-61
2023/08/21 01:19:31;;;;;;;2.80;0.80;;;;;;;28.00;43.99;101924.59;5052529;28;20033;-61
2023/08/21 01:21:58;;;;;;;3.28;1.00;;;;;;;27.98;43.64;101924.81;5053827;28;20053;-61
2023/08/21 01:24:23;;;;;;;3.20;1.10;;;;;;;27.97;43.33;101919.53;5052808;28;20032;-61
2023/08/21 01:26:49;;;;;;;3.15;1.73;;;;;;;27.95;43.14;101927.97;5053578;28;20025;-61
2023/08/21 01:29:14;;;;;;;5.15;1.27;;;;;;;27.92;43.26;101922.91;5035854;28;20036;-61
2023/08/21 01:31:42;;;;;;;3.17;0.90;;;;;;;27.92;43.74;101925.66;5052321;28;20492;-61
2023/08/21 01:34:09;;;;;;;7.00;1.58;;;;;;;27.91;43.78;101929.50;5052371;28;20029;-61
2023/08/21 01:36:35;;;;;;;5.57;1.40;;;;;;;27.87;43.08;101925.47;5052427;28;20043;-62
2023/08/21 01:39:00;;;;;;;4.72;1.13;;;;;;;27.81;43.30;101926.31;5052480;28;20112;-62
2023/08/21 01:41:26;;;;;;;5.18;0.85;;;;;;;27.78;43.20;101939.72;5052348;28;20106;-62
2023/08/21 01:43:51;;;;;;;3.58;1.27;;;;;;;27.72;43.09;101922.13;5053141;28;20111;-61
2023/08/21 01:46:17;;;;;;;5.43;1.33;;;;;;;27.68;44.23;101923.63;5035523;28;20037;-61
2023/08/21 01:48:42;;;;;;;5.10;1.30;;;;;;;27.62;44.31;101925.31;5052073;28;20025;-62
2023/08/21 01:51:08;;;;;;;2.70;0.90;;;;;;;27.56;43.80;101928.06;5052181;28;20025;-61
2023/08/21 01:53:33;;;;;;;2.65;1.15;;;;;;;27.50;43.98;101923.44;5035432;28;20029;-61
2023/08/21 01:55:58;;;;;;;6.00;1.27;;;;;;;27.42;44.35;101923.63;5051997;28;20029;-62
2023/08/21 01:58:24;;;;;;;2.20;0.88;;;;;;;27.37;43.76;101917.91;5055767;28;20063;-62
2023/08/21 02:00:49;;;;;;;2.58;1.48;;;;;;;27.31;44.12;101913.25;5058045;28;20025;-62
2023/08/21 02:03:15;;;;;;;4.47;1.60;;;;;;;27.27;43.68;101914.75;5057971;28;20033;-62
2023/08/21 02:05:40;;;;;;;1.35;0.85;;;;;;;27.25;43.89;101903.09;5056326;28;20037;-63
2023/08/21 02:08:08;;;;;;;6.53;1.10;;;;;;;27.23;43.89;101905.19;5056190;28;20037;-61
2023/08/21 02:10:34;;;;;;;4.47;1.35;;;;;;;27.19;44.29;101908.38;5038023;28;20083;-62
2023/08/21 02:12:59;;;;;;;5.57;1.00;;;;;;;27.16;44.00;101911.53;5053679;28;20040;-62
2023/08/21 02:15:24;;;;;;;3.60;1.02;;;;;;;27.13;44.18;101917.50;5051963;28;20089;-62
2023/08/21 02:17:50;;;;;;;4.15;0.90;;;;;;;27.10;44.66;101911.56;5035961;28;20114;-63
2023/08/21 02:20:15;;;;;;;1.60;0.90;;;;;;;27.03;44.07;101906.06;5052102;28;20056;-62
2023/08/21 02:22:40;;;;;;;4.18;1.10;;;;;;;26.99;44.97;101915.81;5034928;28;20409;-64
2023/08/21 02:25:06;;;;;;;4.60;1.10;;;;;;;26.94;44.20;101915.56;5051666;28;20029;-62
2023/08/21 02:27:32;;;;;;;3.50;0.95;;;;;;;26.88;45.15;101919.19;5034985;28;20060;-62
2023/08/21 02:29:57;;;;;;;4.07;1.23;;;;;;;26.84;45.06;101917.03;5051484;28;20404;-63
2023/08/21 02:32:22;;;;;;;3.85;0.98;;;;;;;26.79;44.80;101919.56;5052641;28;20037;-62
2023/08/21 02:34:48;;;;;;;4.28;1.40;;;;;;;26.76;44.70;101920.81;5051384;28;20033;-62
2023/08/21 02:37:13;;;;;;;3.03;1.05;;;;;;;26.70;44.79;101921.63;5051338;28;20048;-63
2023/08/21 02:39:38;;;;;;;1.02;0.80;;;;;;;26.67;44.76;101933.03;5051325;28;20040;-62
2023/08/21 02:42:04;;;;;;;5.18;1.77;;;;;;;26.66;44.79;101928.63;5051105;28;20647;-62
2023/08/21 02:44:29;;;;;;;2.75;1.55;;;;;;;26.63;44.95;101926.28;5052645;28;20033;-63
2023/08/21 02:46:54;;;;;;;4.03;1.00;;;;;;;26.60;45.41;101916.53;5052660;28;20039;-63
2023/08/21 02:49:20;;;;;;;5.22;0.80;;;;;;;26.57;45.38;101918.88;5051322;28;20120;-62
2023/08/21 02:51:45;;;;;;;3.20;1.10;;;;;;;26.54;45.48;101922.88;5052653;28;20135;-61
2023/08/21 02:54:11;;;;;;;5.03;1.40;;;;;;;26.52;45.18;101930.47;5052288;28;20041;-61
2023/08/21 02:56:36;;;;;;;6.75;1.92;;;;;;;26.49;45.15;101930.06;5051168;28;20481;-62
2023/08/21 02:59:02;;;;;;;4.50;0.98;;;;;;;26.46;45.21;101930.47;5052692;28;20029;-62
2023/08/21 03:01:27;;;;;;;3.47;1.00;;;;;;;26.42;45.53;101929.16;5052413;28;20573;-62
2023/08/21 03:03:53;;;;;;;3.47;1.38;;;;;;;26.39;45.29;101924.94;5052304;28;20405;-63
2023/08/21 03:06:18;;;;;;;3.42;1.10;;;;;;;26.34;45.75;101924.72;5054974;28;20025;-63
2023/08/21 03:08:43;;;;;;;5.53;0.95;;;;;;;26.32;45.59;101928.72;5056281;28;20060;-61
2023/08/21 03:11:09;;;;;;;1.08;0.85;;;;;;;26.26;45.45;101915.78;5056084;28;20071;-62
2023/08/21 03:13:35;;;;;;;0.70;0.70;;;;;;;26.22;45.25;101922.75;5055515;28;20119;-62
2023/08/21 03:16:01;;;;;;;4.18;1.10;;;;;;;26.17;45.82;101917.00;5055322;28;20052;-62
2023/08/21 03:18:31;;;;;;;6.47;0.93;;;;;;;26.14;45.89;101931.16;5056894;28;20072;-62
2023/08/21 03:20:56;;;;;;;2.95;0.98;;;;;;;26.11;45.75;101923.28;5056334;28;20571;-62
2023/08/21 03:23:22;;;;;;;2.45;0.82;;;;;;;26.06;45.92;101923.91;5055272;28;20108;-62
2023/08/21 03:25:47;;;;;;;3.97;1.20;;;;;;;26.04;45.38;101917.78;5056633;28;20029;-62
2023/08/21 03:28:13;;;;;;;2.65;1.15;;;;;;;26.00;45.88;101925.56;5054794;28;20032;-62
2023/08/21 03:30:41;;;;;;;2.10;1.10;;;;;;;25.98;45.52;101927.69;5056330;28;20052;-63
2023/08/21 03:33:08;;;;;;;4.15;1.20;;;;;;;25.96;45.72;101932.50;5055426;28;20063;-62
2023/08/21 03:35:33;;;;;;;4.97;1.80;;;;;;;25.96;46.09;101939.94;5057077;28;20021;-63
2023/08/21 03:37:58;;;;;;;6.00;2.00;;;;;;;25.96;45.64;101942.69;5054887;28;20495;-63
2023/08/21 03:40:24;;;;;;;13.75;1.90;;;;;;;25.95;46.16;101943.72;5057144;28;20128;-63
2023/08/21 03:42:49;;;;;;;0.95;0.82;;;;;;;25.93;46.17;101941.19;5057314;28;20562;-62
2023/08/21 03:45:15;;;;;;;2.95;1.38;;;;;;;25.95;46.02;101947.31;5056367;28;20111;-62
2023/08/21 03:47:40;;;;;;;4.95;2.08;;;;;;;25.97;45.77;101939.72;5056838;28;20025;-63
2023/08/21 03:50:06;;;;;;;5.65;1.65;;;;;;;25.99;46.22;101945.03;5055185;28;20484;-62
2023/08/21 03:52:31;;;;;;;6.75;1.60;;;;;;;26.00;46.14;101942.06;5056073;28;20377;-62
2023/08/21 03:54:57;;;;;;;3.78;2.13;;;;;;;26.01;46.16;101932.78;5056033;28;20033;-62
2023/08/21 03:57:22;;;;;;;4.55;1.45;;;;;;;26.03;46.39;101932.56;5054351;28;20421;-62
2023/08/21 03:59:47;;;;;;;6.95;1.42;;;;;;;26.04;46.01;101935.13;5054162;28;20387;-62
2023/08/21 04:02:13;;;;;;;2.88;1.23;;;;;;;26.07;46.03;101938.50;5055466;28;20029;-62
2023/08/21 04:04:38;;;;;;;7.53;2.08;;;;;;;26.07;46.25;101946.75;5056047;28;20433;-62
2023/08/21 04:07:04;;;;;;;8.90;2.53;;;;;;;26.07;46.19;101944.00;5054676;28;20053;-62
2023/08/21 04:09:29;;;;;;;2.67;1.38;;;;;;;26.08;46.15;101948.41;5055718;28;20024;-62
2023/08/21 04:11:55;;;;;;;6.38;2.20;;;;;;;26.12;45.84;101946.97;5055555;28;20013;-62
2023/08/21 04:14:20;;;;;;;4.30;1.50;;;;;;;26.12;45.76;101956.06;5054588;28;20029;-62
2023/08/21 04:16:46;;;;;;;7.68;1.25;;;;;;;26.12;46.17;101952.47;5054031;28;20556;-62
2023/08/21 04:19:11;;;;;;;3.33;1.20;;;;;;;26.12;45.78;101949.72;5055186;28;20016;-62
2023/08/21 04:21:37;;;;;;;6.57;1.60;;;;;;;26.13;45.82;101951.44;5055072;28;20021;-62
2023/08/21 04:24:02;;;;;;;4.85;1.17;;;;;;;26.14;45.67;101950.38;5053502;28;20395;-62
2023/08/21 04:26:28;;;;;;;5.85;1.65;;;;;;;26.11;45.31;101959.00;5054785;28;20029;-62
2023/08/21 04:28:53;;;;;;;2.88;1.60;;;;;;;26.11;46.07;101959.84;5054692;28;20063;-62
2023/08/21 04:31:18;;;;;;;2.58;1.20;;;;;;;26.12;45.90;101957.97;5053480;28;20028;-62
2023/08/21 04:33:44;;;;;;;5.53;1.50;;;;;;;26.11;45.96;101961.75;5054823;28;20044;-63
2023/08/21 04:36:16;;;;;;;5.40;1.90;;;;;;;26.07;45.68;101963.22;5054432;28;20091;-61
2023/08/21 04:38:42;;;;;;;3.75;1.73;;;;;;;26.03;45.91;101963.63;5053471;28;20033;-62
2023/08/21 04:41:08;;;;;;;4.50;1.63;;;;;;;26.00;45.77;101958.53;5036477;28;20402;-62
2023/08/21 04:43:35;;;;;;;1.50;0.90;;;;;;;25.98;45.36;101959.78;5054764;28;20029;-62
2023/08/21 04:46:01;;;;;;;1.50;1.02;;;;;;;25.93;45.69;101974.16;5053240;28;20033;-62
2023/08/21 04:48:26;;;;;;;8.32;1.45;;;;;;;25.87;45.85;101968.59;5053205;28;20574;-62
2023/08/21 04:50:52;;;;;;;4.25;1.48;;;;;;;25.81;45.90;101964.75;5052964;28;20033;-61
2023/08/21 04:53:17;;;;;;;4.55;1.45;;;;;;;25.75;45.51;101957.31;5054293;28;20040;-61
2023/08/21 04:55:42;;;;;;;2.80;1.75;;;;;;;25.73;45.63;101964.91;5052910;28;20083;-61
2023/08/21 04:58:09;;;;;;;7.00;1.60;;;;;;;25.70;45.73;101962.56;5053075;28;20485;-61
2023/08/21 05:00:34;;;;;;;5.93;1.25;;;;;;;25.69;45.71;101969.09;5036288;28;20127;-61
2023/08/21 05:03:00;;;;;;;4.43;1.40;;;;;;;25.67;46.14;101973.94;5052744;28;20116;-62
2023/08/21 05:05:25;;;;;;;3.65;1.50;;;;;;;25.66;46.16;101974.13;5052905;28;20500;-62
2023/08/21 05:07:52;;;;;;;2.97;1.40;;;;;;;25.67;46.18;101984.06;5053020;28;20118;-62
2023/08/21 05:10:17;;;;;;;2.50;1.63;;;;;;;25.69;46.23;101980.09;5053985;28;20496;-62
2023/08/21 05:12:42;;;;;;;2.45;1.60;;;;;;;25.70;45.92;101972.69;5052677;28;20051;-62
2023/08/21 05:15:08;;;;;;;4.25;1.23;;;;;;;25.75;46.04;101981.19;5052538;28;20135;-62
2023/08/21 05:17:34;;;;;;;2.40;0.90;;;;;;;25.79;46.41;101977.84;5052631;28;20504;-62
2023/08/21 05:19:59;;;;;;;5.85;1.95;;;;;;;25.86;45.63;101977.88;5053783;28;20051;-62
2023/08/21 05:22:24;;;;;;;7.03;1.42;;;;;;;25.89;45.99;101978.31;5052724;28;20072;-62
2023/08/21 05:24:50;;;;;;;6.22;1.48;;;;;;;25.97;45.92;101980.06;5052658;28;20511;-62
2023/08/21 05:27:15;;;;;;;3.17;1.17;;;;;;;26.04;46.08;101984.56;5052138;28;20488;-62
2023/08/21 05:29:40;;;;;;;5.75;1.35;;;;;;;26.11;46.19;101980.97;5053743;28;20029;-62
2023/08/21 05:32:06;;;;;;;2.78;1.00;;;;;;;26.19;45.84;101972.59;5053560;28;20504;-62
2023/08/21 05:34:32;;;;;;;3.25;1.35;;;;;;;26.29;45.81;101981.34;5053692;28;20399;-62
2023/08/21 05:36:57;;;;;;;3.15;1.85;;;;;;;26.38;45.70;101978.19;5052058;28;20032;-62
2023/08/21 05:39:22;;;;;;;3.53;1.48;;;;;;;26.50;45.78;101982.06;5053563;28;20523;-62
2023/08/21 05:41:48;;;;;;;3.80;2.03;;;;;;;26.63;46.13;101986.78;5053008;28;20045;-62
2023/08/21 05:44:13;;;;;;;3.53;1.83;;;;;;;26.78;45.89;101990.22;5052126;28;20110;-62
2023/08/21 05:46:38;;;;;;;6.25;1.65;;;;;;;26.92;45.57;101989.19;5035550;28;20039;-61
2023/08/21 05:49:04;;;;;;;6.75;2.17;;;;;;;27.09;45.61;101986.91;5052654;28;20087;-61
2023/08/21 05:51:29;;;;;;;8.05;1.80;;;;;;;27.25;45.38;101985.66;5051454;28;20028;-61
2023/08/21 05:53:55;;;;;;;8.80;2.17;;;;;;;27.40;45.24;101983.53;5051812;28;20082;-62
2023/08/21 05:56:21;;;;;;;6.55;1.58;;;;;;;27.59;45.51;101993.72;5053367;28;20040;-62
2023/08/21 05:58:47;;;;;;;4.70;2.22;;;;;;;27.79;44.58;101994.56;5053254;28;20112;-61
2023/08/21 06:01:12;;;;;;;11.48;1.98;;;;;;;27.96;44.86;101990.31;5053116;28;20138;-61
2023/08/21 06:03:37;;;;;;;4.53;1.83;;;;;;;28.13;44.33;101988.81;5051667;28;20048;-61
2023/08/21 06:06:03;;;;;;;4.05;1.63;;;;;;;28.33;44.77;102002.53;5051440;28;20039;-61
2023/08/21 06:08:28;;;;;;;4.93;1.83;;;;;;;28.51;43.76;101996.28;5052896;28;20040;-62
2023/08/21 06:10:53;;;;;;;6.28;2.20;;;;;;;28.70;44.34;102009.19;5051367;28;20033;-62
2023/08/21 06:13:19;;;;;;;8.88;1.80;;;;;;;28.88;44.01;102001.88;5052575;28;20067;-62
2023/08/21 06:15:45;;;;;;;6.20;2.03;;;;;;;29.07;42.93;102011.09;5052879;28;20511;-62
2023/08/21 06:18:10;;;;;;;8.63;2.53;;;;;;;29.20;42.89;102002.72;5052895;28;20033;-62
2023/08/21 06:20:36;;;;;;;4.78;1.75;;;;;;;29.35;42.39;102007.94;5034988;28;20048;-62
2023/08/21 06:23:02;;;;;;;6.78;2.33;;;;;;;29.47;42.61;102008.06;5051439;28;20033;-62
2023/08/21 06:25:27;;;;;;;4.85;1.65;;;;;;;29.61;42.86;102009.66;5052802;28;20025;-62
2023/08/21 06:27:52;;;;;;;5.70;2.55;;;;;;;29.75;42.43;102008.47;5052798;28;20078;-62
2023/08/21 06:30:18;;;;;;;7.10;2.00;;;;;;;29.89;42.04;102016.44;5052466;28;20029;-62
2023/08/21 06:32:44;;;;;;;3.03;1.45;;;;;;;30.04;42.01;102006.94;5052424;28;20098;-62
2023/08/21 06:35:09;;;;;;;6.88;2.85;;;;;;;30.18;41.61;102017.59;5051265;28;20409;-63
2023/08/21 06:37:35;;;;;;;6.38;2.65;;;;;;;30.32;41.55;102015.56;5051426;28;20037;-62
2023/08/21 06:40:01;;;;;;;8.90;3.80;;;;;;;30.49;41.43;102016.63;5051943;28;20401;-62
2023/08/21 06:42:27;;;;;;;6.88;2.42;;;;;;;30.62;41.17;102016.50;5050686;28;20175;-62
2023/08/21 06:44:52;;;;;;;7.28;2.47;;;;;;;30.76;40.80;102022.69;5051939;28;20135;-62
2023/08/21 06:47:17;;;;;;;4.00;2.40;;;;;;;30.90;41.16;102018.66;5051857;28;20045;-62
2023/08/21 06:49:43;;;;;;;7.75;2.15;;;;;;;31.02;40.47;102028.72;5052553;28;20033;-62
2023/08/21 06:52:08;;;;;;;10.60;1.85;;;;;;;31.18;40.45;102021.69;5052551;28;20029;-62
2023/08/21 06:54:33;;;;;;;7.65;1.60;;;;;;;31.32;39.88;102022.34;5051141;28;20112;-63
2023/08/21 06:56:59;;;;;;;5.65;1.70;;;;;;;31.47;39.44;102022.75;5052308;28;20486;-62
2023/08/21 06:59:24;;;;;;;4.70;1.70;;;;;;;31.60;39.49;102020.59;5051240;28;20039;-62
2023/08/21 07:01:51;;;;;;;3.92;1.70;;;;;;;31.78;39.75;102021.56;5034561;28;20045;-62
2023/08/21 07:04:16;;;;;;;9.82;2.40;;;;;;;31.91;38.98;102026.91;5052258;28;20025;-62
2023/08/21 07:06:42;;;;;;;7.82;2.17;;;;;;;32.09;38.87;102026.78;5051129;28;20489;-62
2023/08/21 07:09:07;;;;;;;9.23;2.10;;;;;;;32.26;38.12;102024.97;5051042;28;20070;-62
2023/08/21 07:11:32;;;;;;;4.57;2.20;;;;;;;32.42;38.30;102020.56;5051275;28;20071;-62
2023/08/21 07:13:58;;;;;;;4.68;2.20;;;;;;;32.60;38.18;102024.09;5050735;28;20040;-62
2023/08/21 07:16:26;;;;;;;15.70;2.53;;;;;;;32.77;37.63;102027.78;5052894;28;20037;-62
2023/08/21 07:18:51;;;;;;;7.28;2.28;;;;;;;32.94;38.28;102025.03;5054355;28;20043;-62
2023/08/21 07:21:17;;;;;;;6.93;2.08;;;;;;;33.11;37.58;102027.88;5052173;28;20123;-62
2023/08/21 07:23:42;;;;;;;6.72;2.10;;;;;;;33.26;38.28;102030.94;5034071;28;20456;-62
2023/08/21 07:26:08;;;;;;;2.97;1.63;;;;;;;33.42;36.90;102034.84;5052577;28;20025;-62
2023/08/21 07:28:33;;;;;;;7.95;2.35;;;;;;;33.61;37.06;102028.81;5034093;28;20455;-62
2023/08/21 07:30:59;;;;;;;6.53;1.88;;;;;;;33.37;38.07;102027.25;5052052;28;20037;-62
2023/08/21 07:33:25;;;;;;;3.80;1.52;;;;;;;33.42;36.48;102030.09;5052306;28;20033;-62
2023/08/21 07:36:01;;;;;;;4.68;1.60;;;;;;;33.66;36.95;102020.56;5034398;28;20025;-62
2023/08/21 07:38:27;;;;;;;4.97;1.20;;;;;;;33.88;35.70;102027.03;5052152;28;20052;-62
2023/08/21 07:41:02;;;;;;;4.13;1.42;;;;;;;34.07;36.39;102029.50;5034301;28;20530;-62
2023/08/21 07:43:28;;;;;;;12.88;2.05;;;;;;;34.26;35.40;102025.38;5050752;28;20443;-62
2023/08/21 07:45:53;;;;;;;6.20;1.67;;;;;;;34.46;35.94;102025.63;5052242;28;20048;-62
2023/08/21 07:48:18;;;;;;;7.85;2.47;;;;;;;34.63;36.15;102020.88;5052153;28;20475;-62
2023/08/21 07:50:51;;;;;;;4.00;1.88;;;;;;;34.82;35.49;102022.22;5053137;28;20037;-62
2023/08/21 07:53:17;;;;;;;4.80;1.70;;;;;;;34.97;35.02;102025.19;5055577;28;20107;-62
2023/08/21 07:55:42;;;;;;;5.22;2.25;;;;;;;35.14;34.82;102024.25;5054418;28;20124;-62
2023/08/21 07:58:07;;;;;;;6.68;2.25;;;;;;;35.31;34.55;102022.22;5055609;28;20045;-62
2023/08/21 08:00:33;;;;;;;6.25;3.05;;;;;;;35.48;34.71;102018.19;5056264;28;20462;-62
2023/08/21 08:02:58;;;;;;;7.55;1.92;;;;;;;35.63;34.29;102009.13;5055247;28;20052;-62
2023/08/21 08:05:23;;;;;;;4.82;2.15;;;;;;;35.82;33.98;102021.53;5055408;28;20053;-62
2023/08/21 08:07:49;;;;;;;4.50;1.83;;;;;;;35.99;33.98;102024.16;5055054;28;20552;-62
2023/08/21 08:10:14;;;;;;;5.70;2.35;;;;;;;36.14;34.21;102027.09;5055208;28;20040;-62
2023/08/21 08:12:44;;;;;;;7.45;2.40;;;;;;;36.04;33.88;102022.25;5055274;28;20079;-63
2023/08/21 08:15:10;;;;;;;4.30;1.90;;;;;;;36.14;33.59;102021.50;5055153;28;20441;-63
2023/08/21 08:17:35;;;;;;;4.70;2.08;;;;;;;36.10;34.51;102023.13;5053893;28;20075;-62
2023/08/21 08:20:01;;;;;;;7.38;2.08;;;;;;;36.07;33.65;102027.31;5056708;28;20060;-62
2023/08/21 08:22:26;;;;;;;7.15;2.10;;;;;;;36.31;33.43;102032.47;5056873;28;20094;-63
2023/08/21 08:24:52;;;;;;;6.43;1.80;;;;;;;36.48;33.12;102030.31;5037102;28;20496;-62
2023/08/21 08:27:17;;;;;;;3.08;1.88;;;;;;;36.56;33.11;102025.09;5054904;28;20467;-62
2023/08/21 08:29:42;;;;;;;6.60;2.22;;;;;;;36.80;32.80;102031.03;5054834;28;20120;-63
2023/08/21 08:32:08;;;;;;;6.72;1.77;;;;;;;36.99;32.46;102029.47;5053434;28;20118;-62
2023/08/21 08:34:33;;;;;;;3.47;1.42;;;;;;;37.19;32.91;102029.47;5054583;28;20033;-62
2023/08/21 08:36:58;;;;;;;8.80;1.95;;;;;;;37.36;31.95;102028.41;5055004;28;20386;-62
2023/08/21 08:39:24;;;;;;;5.72;1.67;;;;;;;37.57;31.64;102038.50;5054708;28;20112;-63
2023/08/21 08:41:56;;;;;;;8.68;2.15;;;;;;;37.60;32.25;102029.53;5054441;28;20119;-63
2023/08/21 08:44:25;;;;;;;2.03;1.20;;;;;;;37.79;31.95;102034.28;5053112;28;20059;-63
2023/08/21 08:46:51;;;;;;;4.95;1.50;;;;;;;37.95;31.86;102043.50;5053117;28;20560;-63
2023/08/21 08:49:16;;;;;;;8.18;1.40;;;;;;;38.11;31.20;102041.53;5053261;28;20060;-63
2023/08/21 08:51:42;;;;;;;7.05;1.65;;;;;;;38.26;31.14;102045.13;5053015;28;20120;-62
2023/08/21 08:54:09;;;;;;;5.78;1.77;;;;;;;38.43;31.03;102039.22;5052914;28;20071;-63
2023/08/21 08:56:34;;;;;;;4.95;1.33;;;;;;;38.60;30.98;102036.06;5054305;28;20044;-62
2023/08/21 08:58:59;;;;;;;4.68;1.35;;;;;;;38.73;30.40;102032.63;5053122;28;20045;-63
2023/08/21 09:01:25;;;;;;;6.15;1.25;;;;;;;38.84;30.16;102045.50;5054071;28;20055;-62
2023/08/21 09:03:51;;;;;;;10.10;1.83;;;;;;;38.94;29.89;102035.09;5053359;28;20123;-63
2023/08/21 09:06:16;;;;;;;6.10;1.10;;;;;;;39.09;29.24;102036.94;5052657;28;20036;-63
2023/08/21 09:08:56;;;;;;;3.28;1.20;;;;;;;39.21;29.46;102029.03;5053889;28;20108;-63
2023/08/21 09:11:22;;;;;;;6.25;2.08;;;;;;;39.35;29.21;102030.06;5052312;28;20045;-64
2023/08/21 09:13:52;;;;;;;4.38;1.60;;;;;;;39.48;29.90;102029.38;5035913;28;20025;-63
2023/08/21 09:16:18;;;;;;;4.78;1.30;;;;;;;39.57;29.72;102033.22;5053017;28;20033;-63
2023/08/21 09:18:56;;;;;;;4.35;1.45;;;;;;;39.65;28.80;102019.72;5035948;28;20021;-62
2023/08/21 09:21:27;;;;;;;2.65;1.05;;;;;;;39.77;28.65;102017.34;5053796;28;20558;-63
2023/08/21 09:24:03;;;;;;;5.28;1.10;;;;;;;39.87;29.19;102025.69;5052765;28;20032;-63
2023/08/21 09:26:32;;;;;;;8.32;1.20;;;;;;;39.92;28.66;102017.22;5053700;28;20037;-64
2023/08/21 09:28:59;;;;;;;7.45;1.08;;;;;;;40.04;29.03;102017.63;5052690;28;20032;-63
2023/08/21 09:31:30;;;;;;;1.90;1.15;;;;;;;40.15;28.39;102030.44;5052397;28;20500;-63
2023/08/21 09:33:57;;;;;;;3.53;1.10;;;;;;;40.27;28.02;102024.41;5052671;28;20037;-63
2023/08/21 09:36:23;;;;;;;2.80;1.40;;;;;;;40.42;28.23;102022.28;5035964;28;20560;-63
2023/08/21 09:38:50;;;;;;;8.25;1.45;;;;;;;40.56;28.19;102028.03;5052660;28;20377;-63
2023/08/21 09:41:19;;;;;;;4.57;0.95;;;;;;;40.63;28.05;102023.69;5052366;28;20385;-63
2023/08/21 09:43:44;;;;;;;6.03;1.42;;;;;;;40.67;28.03;102019.16;5052022;28;20048;-63
2023/08/21 09:46:14;;;;;;;5.75;1.27;;;;;;;40.79;28.02;102009.44;5052304;28;20033;-63
2023/08/21 09:48:40;;;;;;;6.85;1.65;;;;;;;41.01;27.83;102006.91;5052015;28;20029;-64
2023/08/21 09:51:05;;;;;;;3.88;2.20;;;;;;;41.37;27.55;102010.84;5052087;28;20040;-63
2023/08/21 09:53:31;;;;;;;8.35;2.75;;;;;;;41.97;27.16;102020.19;5051920;28;20029;-64
2023/08/21 09:55:56;;;;;;;5.32;1.67;;;;;;;42.76;26.53;102010.38;5018986;28;20036;-64
2023/08/21 09:58:22;;;;;;;5.60;1.30;;;;;;;44.22;25.01;102002.16;5053271;28;20036;-64
2023/08/21 10:00:49;;;;;;;5.00;1.30;;;;;;;45.89;23.32;102012.56;5051830;28;20029;-63
2023/08/21 10:03:18;;;;;;;4.32;1.42;;;;;;;45.87;23.36;101997.91;5053076;28;20047;-65
2023/08/21 10:05:44;;;;;;;7.13;1.77;;;;;;;45.26;24.40;102006.84;5053883;28;20040;-62
2023/08/21 10:08:10;;;;;;;5.72;1.27;;;;;;;44.93;24.30;102010.16;5051706;28;20037;-63
2023/08/21 10:10:37;;;;;;;2.47;1.15;;;;;;;44.60;24.42;102011.75;5051721;28;20037;-64
2023/08/21 10:13:04;;;;;;;2.70;1.42;;;;;;;44.45;24.66;102007.38;5051690;28;20109;-63
2023/08/21 10:15:33;;;;;;;6.10;1.25;;;;;;;44.42;24.70;102001.56;5034208;28;20043;-62
2023/08/21 10:18:17;;;;;;;5.38;1.30;;;;;;;44.45;24.31;101998.03;5051674;28;20033;-63
2023/08/21 10:20:43;;;;;;;2.08;0.90;;;;;;;44.47;24.15;101996.59;5034872;28;20033;-63
2023/08/21 10:23:08;;;;;;;3.67;1.27;;;;;;;44.50;24.14;101998.75;5051463;28;20037;-63
2023/08/21 10:25:41;;;;;;;4.32;1.60;;;;;;;44.58;24.26;102003.63;5053052;28;20120;-63
2023/08/21 10:28:07;;;;;;;2.78;1.13;;;;;;;44.64;23.78;101995.81;5052993;28;20607;-63
2023/08/21 10:30:32;;;;;;;6.80;1.15;;;;;;;44.81;24.26;101998.63;5052807;28;20040;-63
2023/08/21 10:32:59;;;;;;;2.88;1.10;;;;;;;44.96;23.40;101995.34;5052699;28;20037;-63
2023/08/21 10:35:34;;;;;;;2.10;0.88;;;;;;;45.10;23.41;101987.53;5051446;28;20044;-63
2023/08/21 10:38:15;;;;;;;3.97;1.17;;;;;;;45.25;23.00;101996.66;5051299;28;20497;-63
2023/08/21 10:41:01;;;;;;;2.57;1.30;;;;;;;45.38;23.26;101985.19;5052654;28;20052;-64
2023/08/21 10:43:46;;;;;;;5.35;1.30;;;;;;;45.57;23.33;101987.63;5052053;28;20215;-63
2023/08/21 10:46:12;;;;;;;5.25;0.80;;;;;;;45.69;23.37;101991.47;5047812;28;20034;-63
2023/08/21 10:48:39;;;;;;;3.25;0.90;;;;;;;45.89;22.71;102000.41;5031513;28;20037;-69
2023/08/21 10:51:08;;;;;;;3.38;0.88;;;;;;;46.00;22.67;102008.19;5031510;28;20034;-63
2023/08/21 10:53:34;;;;;;;2.95;1.20;;;;;;;46.06;22.56;102004.03;5031776;28;20052;-63
2023/08/21 10:56:04;;;;;;;3.90;0.70;;;;;;;46.13;22.72;102004.31;5031809;28;20408;-63
2023/08/21 10:58:41;;;;;;;4.30;1.15;;;;;;;46.22;22.24;102010.78;5038064;28;20469;-63
2023/08/21 11:01:07;;;;;;;3.80;1.20;;;;;;;46.29;22.37;102006.59;5027945;28;20100;-63
2023/08/21 11:03:32;;;;;;;1.63;1.13;;;;;;;46.32;22.56;102003.06;5056487;28;20045;-64
2023/08/21 11:06:06;;;;;;;4.40;1.38;;;;;;;46.40;22.33;102005.88;5058338;28;20167;-63
2023/08/21 11:08:33;;;;;;;9.57;1.45;;;;;;;46.43;22.28;101999.50;5057809;28;20098;-63
2023/08/21 11:10:59;;;;;;;4.57;2.25;;;;;;;45.98;22.84;102004.03;5059324;28;20037;-64
2023/08/21 11:13:25;;;;;;;6.85;1.73;;;;;;;46.11;22.54;102005.84;5047100;28;20401;-64
2023/08/21 11:16:01;;;;;;;5.75;1.30;;;;;;;46.20;22.47;102013.13;5045404;28;20037;-64
2023/08/21 11:18:37;;;;;;;3.78;1.13;;;;;;;46.24;22.73;102011.25;5033346;28;20085;-63
2023/08/21 11:21:10;;;;;;;7.25;2.10;;;;;;;46.26;22.36;102010.94;5031242;28;20030;-64